sensor_id;sensor_type;location;lat;lon;timestamp;P1;durP1;ratioP1;P2;durP2;ratioP2
16994;SDS011;8614;48.522;9.206;2024-03-02T00:02:13;24.50;;;22.10;;
16994;SDS011;8614;48.522;9.206;2024-03-02T00:04:42;21.67;;;19.87;;
16994;SDS011;8614;48.522;9.206;2024-03-02T00:07:10;21.40;;;19.60;;
16994;SDS011;8614;48.522;9.206;2024-03-02T00:09:40;20.83;;;19.03;;
16994;SDS011;8614;48.522;9.206;2024-03-02T00:12:08;20.90;;;19.10;;
16994;SDS011;8614;48.522;9.206;2024-03-02T00:14:37;23.10;;;21.00;;
16994;SDS011;8614;48.522;9.206;2024-03-02T00:17:04;23.07;;;20.90;;
16994;SDS011;8614;48.522;9.206;2024-03-02T00:19:33;24.30;;;21.97;;
16994;SDS011;8614;48.522;9.206;2024-03-02T00:22:01;22.67;;;20.63;;
16994;SDS011;8614;48.522;9.206;2024-03-02T00:24:31;22.90;;;20.80;;
16994;SDS011;8614;48.522;9.206;2024-03-02T00:27:00;23.67;;;21.50;;
16994;SDS011;8614;48.522;9.206;2024-03-02T00:29:27;23.83;;;21.67;;
16994;SDS011;8614;48.522;9.206;2024-03-02T00:31:55;23.57;;;21.47;;
16994;SDS011;8614;48.522;9.206;2024-03-02T00:34:23;22.87;;;20.87;;
16994;SDS011;8614;48.522;9.206;2024-03-02T00:36:50;24.57;;;22.30;;
16994;SDS011;8614;48.522;9.206;2024-03-02T00:39:18;22.40;;;20.50;;
16994;SDS011;8614;48.522;9.206;2024-03-02T00:41:45;22.87;;;20.93;;
16994;SDS011;8614;48.522;9.206;2024-03-02T00:44:12;22.03;;;19.93;;
16994;SDS011;8614;48.522;9.206;2024-03-02T00:46:42;23.00;;;20.90;;
16994;SDS011;8614;48.522;9.206;2024-03-02T00:49:11;23.97;;;21.77;;
16994;SDS011;8614;48.522;9.206;2024-03-02T00:51:48;21.33;;;19.50;;
16994;SDS011;8614;48.522;9.206;2024-03-02T00:54:18;21.87;;;19.97;;
16994;SDS011;8614;48.522;9.206;2024-03-02T00:56:49;22.57;;;20.53;;
16994;SDS011;8614;48.522;9.206;2024-03-02T00:59:16;23.57;;;21.33;;
16994;SDS011;8614;48.522;9.206;2024-03-02T01:01:43;22.17;;;20.27;;
16994;SDS011;8614;48.522;9.206;2024-03-02T01:04:10;21.87;;;19.70;;
16994;SDS011;8614;48.522;9.206;2024-03-02T01:06:39;22.47;;;20.23;;
16994;SDS011;8614;48.522;9.206;2024-03-02T01:09:06;22.90;;;20.70;;
16994;SDS011;8614;48.522;9.206;2024-03-02T01:11:34;22.83;;;20.73;;
16994;SDS011;8614;48.522;9.206;2024-03-02T01:14:00;22.53;;;20.40;;
16994;SDS011;8614;48.522;9.206;2024-03-02T01:16:27;22.53;;;20.50;;
16994;SDS011;8614;48.522;9.206;2024-03-02T01:18:54;23.23;;;21.03;;
16994;SDS011;8614;48.522;9.206;2024-03-02T01:21:21;22.77;;;20.87;;
16994;SDS011;8614;48.522;9.206;2024-03-02T01:23:47;23.73;;;21.57;;
16994;SDS011;8614;48.522;9.206;2024-03-02T01:26:14;24.80;;;22.50;;
16994;SDS011;8614;48.522;9.206;2024-03-02T01:28:42;24.17;;;21.87;;
16994;SDS011;8614;48.522;9.206;2024-03-02T01:31:09;23.17;;;20.97;;
16994;SDS011;8614;48.522;9.206;2024-03-02T01:33:36;23.37;;;21.37;;
16994;SDS011;8614;48.522;9.206;2024-03-02T01:36:03;22.03;;;20.13;;
16994;SDS011;8614;48.522;9.206;2024-03-02T01:38:30;23.17;;;21.27;;
16994;SDS011;8614;48.522;9.206;2024-03-02T01:40:57;25.00;;;22.70;;
16994;SDS011;8614;48.522;9.206;2024-03-02T01:43:24;23.93;;;21.70;;
16994;SDS011;8614;48.522;9.206;2024-03-02T01:45:52;25.73;;;23.07;;
16994;SDS011;8614;48.522;9.206;2024-03-02T01:48:19;24.77;;;22.30;;
16994;SDS011;8614;48.522;9.206;2024-03-02T01:50:46;23.83;;;21.70;;
16994;SDS011;8614;48.522;9.206;2024-03-02T01:53:13;24.20;;;21.83;;
16994;SDS011;8614;48.522;9.206;2024-03-02T01:55:39;24.27;;;21.83;;
16994;SDS011;8614;48.522;9.206;2024-03-02T01:58:06;24.50;;;22.27;;
16994;SDS011;8614;48.522;9.206;2024-03-02T02:00:33;24.13;;;21.83;;
16994;SDS011;8614;48.522;9.206;2024-03-02T02:03:02;24.57;;;22.17;;
16994;SDS011;8614;48.522;9.206;2024-03-02T02:05:29;22.87;;;20.70;;
16994;SDS011;8614;48.522;9.206;2024-03-02T02:07:56;22.70;;;20.70;;
16994;SDS011;8614;48.522;9.206;2024-03-02T02:10:23;23.87;;;21.37;;
16994;SDS011;8614;48.522;9.206;2024-03-02T02:12:50;23.27;;;21.17;;
16994;SDS011;8614;48.522;9.206;2024-03-02T02:15:23;23.23;;;20.93;;
16994;SDS011;8614;48.522;9.206;2024-03-02T02:17:51;24.23;;;22.03;;
16994;SDS011;8614;48.522;9.206;2024-03-02T02:20:19;22.30;;;20.40;;
16994;SDS011;8614;48.522;9.206;2024-03-02T02:22:55;22.53;;;20.63;;
16994;SDS011;8614;48.522;9.206;2024-03-02T02:25:22;22.40;;;20.47;;
16994;SDS011;8614;48.522;9.206;2024-03-02T02:27:49;23.60;;;21.50;;
16994;SDS011;8614;48.522;9.206;2024-03-02T02:30:18;24.30;;;21.90;;
16994;SDS011;8614;48.522;9.206;2024-03-02T02:32:46;23.17;;;21.07;;
16994;SDS011;8614;48.522;9.206;2024-03-02T02:35:12;23.27;;;21.10;;
16994;SDS011;8614;48.522;9.206;2024-03-02T02:37:39;23.23;;;21.07;;
16994;SDS011;8614;48.522;9.206;2024-03-02T02:40:08;22.47;;;20.57;;
16994;SDS011;8614;48.522;9.206;2024-03-02T02:42:34;23.13;;;20.93;;
16994;SDS011;8614;48.522;9.206;2024-03-02T02:45:01;21.97;;;19.97;;
16994;SDS011;8614;48.522;9.206;2024-03-02T02:47:28;21.97;;;19.97;;
16994;SDS011;8614;48.522;9.206;2024-03-02T02:49:55;22.87;;;20.73;;
16994;SDS011;8614;48.522;9.206;2024-03-02T02:52:22;23.50;;;21.17;;
16994;SDS011;8614;48.522;9.206;2024-03-02T02:54:49;21.50;;;19.50;;
16994;SDS011;8614;48.522;9.206;2024-03-02T02:57:17;21.40;;;19.50;;
16994;SDS011;8614;48.522;9.206;2024-03-02T02:59:44;20.73;;;18.93;;
16994;SDS011;8614;48.522;9.206;2024-03-02T03:02:11;21.07;;;19.17;;
16994;SDS011;8614;48.522;9.206;2024-03-02T03:04:39;21.33;;;19.63;;
16994;SDS011;8614;48.522;9.206;2024-03-02T03:07:06;22.40;;;20.23;;
16994;SDS011;8614;48.522;9.206;2024-03-02T03:09:33;22.20;;;20.30;;
16994;SDS011;8614;48.522;9.206;2024-03-02T03:12:03;21.43;;;19.63;;
16994;SDS011;8614;48.522;9.206;2024-03-02T03:14:32;22.57;;;20.57;;
16994;SDS011;8614;48.522;9.206;2024-03-02T03:16:59;22.40;;;20.50;;
16994;SDS011;8614;48.522;9.206;2024-03-02T03:19:26;23.03;;;21.03;;
16994;SDS011;8614;48.522;9.206;2024-03-02T03:21:53;21.73;;;19.83;;
16994;SDS011;8614;48.522;9.206;2024-03-02T03:24:19;22.80;;;20.73;;
16994;SDS011;8614;48.522;9.206;2024-03-02T03:26:46;22.80;;;20.67;;
16994;SDS011;8614;48.522;9.206;2024-03-02T03:29:13;22.40;;;20.40;;
16994;SDS011;8614;48.522;9.206;2024-03-02T03:31:41;21.97;;;20.17;;
16994;SDS011;8614;48.522;9.206;2024-03-02T03:34:08;21.70;;;19.90;;
16994;SDS011;8614;48.522;9.206;2024-03-02T03:36:34;23.97;;;21.97;;
16994;SDS011;8614;48.522;9.206;2024-03-02T03:39:02;23.13;;;21.13;;
16994;SDS011;8614;48.522;9.206;2024-03-02T03:41:31;23.60;;;21.50;;
16994;SDS011;8614;48.522;9.206;2024-03-02T03:43:58;22.63;;;20.73;;
16994;SDS011;8614;48.522;9.206;2024-03-02T03:46:25;23.73;;;21.73;;
16994;SDS011;8614;48.522;9.206;2024-03-02T03:48:53;23.40;;;21.30;;
16994;SDS011;8614;48.522;9.206;2024-03-02T03:51:21;22.57;;;20.60;;
16994;SDS011;8614;48.522;9.206;2024-03-02T03:53:48;22.03;;;20.13;;
16994;SDS011;8614;48.522;9.206;2024-03-02T03:56:15;24.33;;;21.73;;
16994;SDS011;8614;48.522;9.206;2024-03-02T03:58:42;22.10;;;20.10;;
16994;SDS011;8614;48.522;9.206;2024-03-02T04:01:09;23.07;;;20.97;;
16994;SDS011;8614;48.522;9.206;2024-03-02T04:03:35;22.40;;;20.37;;
16994;SDS011;8614;48.522;9.206;2024-03-02T04:06:04;23.07;;;21.07;;
16994;SDS011;8614;48.522;9.206;2024-03-02T04:08:31;22.70;;;20.70;;
16994;SDS011;8614;48.522;9.206;2024-03-02T04:10:57;22.50;;;20.47;;
16994;SDS011;8614;48.522;9.206;2024-03-02T04:13:24;21.97;;;20.03;;
16994;SDS011;8614;48.522;9.206;2024-03-02T04:15:51;20.17;;;18.47;;
16994;SDS011;8614;48.522;9.206;2024-03-02T04:18:19;21.67;;;19.60;;
16994;SDS011;8614;48.522;9.206;2024-03-02T04:20:45;21.07;;;19.27;;
16994;SDS011;8614;48.522;9.206;2024-03-02T04:23:13;21.57;;;19.70;;
16994;SDS011;8614;48.522;9.206;2024-03-02T04:25:40;21.57;;;19.67;;
16994;SDS011;8614;48.522;9.206;2024-03-02T04:28:07;21.23;;;19.53;;
16994;SDS011;8614;48.522;9.206;2024-03-02T04:30:34;21.20;;;19.40;;
16994;SDS011;8614;48.522;9.206;2024-03-02T04:33:00;22.20;;;20.23;;
16994;SDS011;8614;48.522;9.206;2024-03-02T04:35:28;21.17;;;19.37;;
16994;SDS011;8614;48.522;9.206;2024-03-02T04:37:55;20.20;;;18.60;;
16994;SDS011;8614;48.522;9.206;2024-03-02T04:40:23;21.13;;;19.33;;
16994;SDS011;8614;48.522;9.206;2024-03-02T04:42:50;21.83;;;19.87;;
16994;SDS011;8614;48.522;9.206;2024-03-02T04:45:17;22.90;;;20.90;;
16994;SDS011;8614;48.522;9.206;2024-03-02T04:47:44;21.00;;;19.23;;
16994;SDS011;8614;48.522;9.206;2024-03-02T04:50:10;22.43;;;20.30;;
16994;SDS011;8614;48.522;9.206;2024-03-02T04:52:37;22.37;;;20.57;;
16994;SDS011;8614;48.522;9.206;2024-03-02T04:55:04;22.50;;;20.50;;
16994;SDS011;8614;48.522;9.206;2024-03-02T04:57:55;21.87;;;20.03;;
16994;SDS011;8614;48.522;9.206;2024-03-02T05:00:22;23.00;;;21.13;;
16994;SDS011;8614;48.522;9.206;2024-03-02T05:02:49;21.70;;;19.70;;
16994;SDS011;8614;48.522;9.206;2024-03-02T05:05:16;22.50;;;20.50;;
16994;SDS011;8614;48.522;9.206;2024-03-02T05:07:43;22.90;;;20.83;;
16994;SDS011;8614;48.522;9.206;2024-03-02T05:10:09;22.17;;;20.27;;
16994;SDS011;8614;48.522;9.206;2024-03-02T05:12:37;20.67;;;19.03;;
16994;SDS011;8614;48.522;9.206;2024-03-02T05:15:25;21.40;;;19.50;;
16994;SDS011;8614;48.522;9.206;2024-03-02T05:17:52;22.57;;;20.57;;
16994;SDS011;8614;48.522;9.206;2024-03-02T05:20:19;22.73;;;20.73;;
16994;SDS011;8614;48.522;9.206;2024-03-02T05:22:45;23.17;;;21.17;;
16994;SDS011;8614;48.522;9.206;2024-03-02T05:25:12;22.80;;;20.83;;
16994;SDS011;8614;48.522;9.206;2024-03-02T05:27:39;22.97;;;20.87;;
16994;SDS011;8614;48.522;9.206;2024-03-02T05:30:06;23.80;;;21.60;;
16994;SDS011;8614;48.522;9.206;2024-03-02T05:32:35;22.10;;;20.30;;
16994;SDS011;8614;48.522;9.206;2024-03-02T05:35:02;22.83;;;21.03;;
16994;SDS011;8614;48.522;9.206;2024-03-02T05:37:31;23.13;;;21.03;;
16994;SDS011;8614;48.522;9.206;2024-03-02T05:39:57;23.00;;;21.00;;
16994;SDS011;8614;48.522;9.206;2024-03-02T05:42:25;23.37;;;21.43;;
16994;SDS011;8614;48.522;9.206;2024-03-02T05:44:55;22.60;;;20.70;;
16994;SDS011;8614;48.522;9.206;2024-03-02T05:47:21;23.83;;;21.67;;
16994;SDS011;8614;48.522;9.206;2024-03-02T05:49:50;24.60;;;22.37;;
16994;SDS011;8614;48.522;9.206;2024-03-02T05:52:16;24.87;;;22.67;;
16994;SDS011;8614;48.522;9.206;2024-03-02T05:54:43;25.13;;;22.83;;
16994;SDS011;8614;48.522;9.206;2024-03-02T05:57:10;25.30;;;23.07;;
16994;SDS011;8614;48.522;9.206;2024-03-02T05:59:57;22.73;;;20.77;;
16994;SDS011;8614;48.522;9.206;2024-03-02T06:02:24;22.67;;;20.77;;
16994;SDS011;8614;48.522;9.206;2024-03-02T06:04:52;21.97;;;20.10;;
16994;SDS011;8614;48.522;9.206;2024-03-02T06:07:20;23.90;;;21.80;;
16994;SDS011;8614;48.522;9.206;2024-03-02T06:09:47;21.93;;;20.00;;
16994;SDS011;8614;48.522;9.206;2024-03-02T06:12:15;21.80;;;19.73;;
16994;SDS011;8614;48.522;9.206;2024-03-02T06:14:43;23.07;;;21.07;;
16994;SDS011;8614;48.522;9.206;2024-03-02T06:17:09;22.90;;;20.90;;
16994;SDS011;8614;48.522;9.206;2024-03-02T06:19:36;23.70;;;21.67;;
16994;SDS011;8614;48.522;9.206;2024-03-02T06:22:04;22.80;;;20.77;;
16994;SDS011;8614;48.522;9.206;2024-03-02T06:24:35;24.30;;;22.20;;
16994;SDS011;8614;48.522;9.206;2024-03-02T06:27:02;23.30;;;21.20;;
16994;SDS011;8614;48.522;9.206;2024-03-02T06:29:29;24.33;;;22.13;;
16994;SDS011;8614;48.522;9.206;2024-03-02T06:31:58;24.43;;;22.03;;
16994;SDS011;8614;48.522;9.206;2024-03-02T06:34:25;22.77;;;20.77;;
16994;SDS011;8614;48.522;9.206;2024-03-02T06:36:51;23.77;;;21.70;;
16994;SDS011;8614;48.522;9.206;2024-03-02T06:39:19;24.50;;;22.30;;
16994;SDS011;8614;48.522;9.206;2024-03-02T06:41:46;22.90;;;21.00;;
16994;SDS011;8614;48.522;9.206;2024-03-02T06:44:13;22.40;;;20.60;;
16994;SDS011;8614;48.522;9.206;2024-03-02T06:46:40;22.37;;;20.50;;
16994;SDS011;8614;48.522;9.206;2024-03-02T06:49:07;22.60;;;20.70;;
16994;SDS011;8614;48.522;9.206;2024-03-02T06:51:35;20.67;;;19.07;;
16994;SDS011;8614;48.522;9.206;2024-03-02T06:54:02;21.03;;;19.20;;
16994;SDS011;8614;48.522;9.206;2024-03-02T06:56:30;21.07;;;19.37;;
16994;SDS011;8614;48.522;9.206;2024-03-02T06:58:58;21.30;;;19.50;;
16994;SDS011;8614;48.522;9.206;2024-03-02T07:01:24;20.57;;;18.97;;
16994;SDS011;8614;48.522;9.206;2024-03-02T07:03:53;21.40;;;19.73;;
16994;SDS011;8614;48.522;9.206;2024-03-02T07:06:20;21.50;;;19.70;;
16994;SDS011;8614;48.522;9.206;2024-03-02T07:08:46;22.27;;;20.37;;
16994;SDS011;8614;48.522;9.206;2024-03-02T07:11:13;22.40;;;20.60;;
16994;SDS011;8614;48.522;9.206;2024-03-02T07:13:41;22.10;;;20.17;;
16994;SDS011;8614;48.522;9.206;2024-03-02T07:16:08;22.10;;;20.40;;
16994;SDS011;8614;48.522;9.206;2024-03-02T07:18:55;21.17;;;19.47;;
16994;SDS011;8614;48.522;9.206;2024-03-02T07:21:22;21.90;;;20.07;;
16994;SDS011;8614;48.522;9.206;2024-03-02T07:23:54;18.37;;;16.80;;
16994;SDS011;8614;48.522;9.206;2024-03-02T07:26:21;18.20;;;16.63;;
16994;SDS011;8614;48.522;9.206;2024-03-02T07:28:49;16.90;;;15.50;;
16994;SDS011;8614;48.522;9.206;2024-03-02T07:31:16;17.13;;;15.67;;
16994;SDS011;8614;48.522;9.206;2024-03-02T07:33:44;17.20;;;15.70;;
16994;SDS011;8614;48.522;9.206;2024-03-02T07:36:11;17.10;;;15.70;;
16994;SDS011;8614;48.522;9.206;2024-03-02T07:38:38;16.27;;;14.90;;
16994;SDS011;8614;48.522;9.206;2024-03-02T07:41:06;17.23;;;15.90;;
16994;SDS011;8614;48.522;9.206;2024-03-02T07:43:33;18.77;;;17.27;;
16994;SDS011;8614;48.522;9.206;2024-03-02T07:46:01;19.13;;;17.73;;
16994;SDS011;8614;48.522;9.206;2024-03-02T07:48:29;19.27;;;17.77;;
16994;SDS011;8614;48.522;9.206;2024-03-02T07:50:56;19.70;;;18.10;;
16994;SDS011;8614;48.522;9.206;2024-03-02T07:53:22;18.83;;;17.43;;
16994;SDS011;8614;48.522;9.206;2024-03-02T07:55:49;19.13;;;17.63;;
16994;SDS011;8614;48.522;9.206;2024-03-02T07:58:16;18.70;;;17.30;;
16994;SDS011;8614;48.522;9.206;2024-03-02T08:00:44;17.97;;;16.67;;
16994;SDS011;8614;48.522;9.206;2024-03-02T08:03:13;18.53;;;17.10;;
16994;SDS011;8614;48.522;9.206;2024-03-02T08:05:40;17.90;;;16.60;;
16994;SDS011;8614;48.522;9.206;2024-03-02T08:08:07;18.67;;;17.27;;
16994;SDS011;8614;48.522;9.206;2024-03-02T08:10:33;18.57;;;17.17;;
16994;SDS011;8614;48.522;9.206;2024-03-02T08:13:00;18.30;;;16.97;;
16994;SDS011;8614;48.522;9.206;2024-03-02T08:15:27;19.10;;;17.50;;
16994;SDS011;8614;48.522;9.206;2024-03-02T08:17:54;18.93;;;17.53;;
16994;SDS011;8614;48.522;9.206;2024-03-02T08:20:22;19.33;;;17.80;;
16994;SDS011;8614;48.522;9.206;2024-03-02T08:22:49;20.23;;;18.73;;
16994;SDS011;8614;48.522;9.206;2024-03-02T08:25:16;15.17;;;13.57;;
16994;SDS011;8614;48.522;9.206;2024-03-02T08:27:43;18.17;;;16.37;;
16994;SDS011;8614;48.522;9.206;2024-03-02T08:30:11;13.17;;;11.87;;
16994;SDS011;8614;48.522;9.206;2024-03-02T08:32:38;16.03;;;14.80;;
16994;SDS011;8614;48.522;9.206;2024-03-02T08:35:06;17.00;;;15.60;;
16994;SDS011;8614;48.522;9.206;2024-03-02T08:37:34;18.37;;;16.97;;
16994;SDS011;8614;48.522;9.206;2024-03-02T08:40:03;16.93;;;15.63;;
16994;SDS011;8614;48.522;9.206;2024-03-02T08:42:32;17.03;;;15.73;;
16994;SDS011;8614;48.522;9.206;2024-03-02T08:44:59;17.23;;;15.93;;
16994;SDS011;8614;48.522;9.206;2024-03-02T08:47:27;17.80;;;16.40;;
16994;SDS011;8614;48.522;9.206;2024-03-02T08:49:54;16.93;;;15.50;;
16994;SDS011;8614;48.522;9.206;2024-03-02T08:52:20;16.73;;;15.43;;
16994;SDS011;8614;48.522;9.206;2024-03-02T08:54:48;16.77;;;15.57;;
16994;SDS011;8614;48.522;9.206;2024-03-02T08:57:15;15.83;;;14.73;;
16994;SDS011;8614;48.522;9.206;2024-03-02T08:59:42;16.27;;;15.07;;
16994;SDS011;8614;48.522;9.206;2024-03-02T09:02:09;15.70;;;14.60;;
16994;SDS011;8614;48.522;9.206;2024-03-02T09:04:36;16.57;;;15.37;;
16994;SDS011;8614;48.522;9.206;2024-03-02T09:07:03;14.90;;;13.70;;
16994;SDS011;8614;48.522;9.206;2024-03-02T09:09:30;12.60;;;11.50;;
16994;SDS011;8614;48.522;9.206;2024-03-02T09:11:59;9.70;;;8.70;;
16994;SDS011;8614;48.522;9.206;2024-03-02T09:14:26;12.07;;;10.83;;
16994;SDS011;8614;48.522;9.206;2024-03-02T09:16:53;9.73;;;8.33;;
16994;SDS011;8614;48.522;9.206;2024-03-02T09:19:20;15.00;;;13.80;;
16994;SDS011;8614;48.522;9.206;2024-03-02T09:21:46;11.67;;;10.47;;
16994;SDS011;8614;48.522;9.206;2024-03-02T09:24:13;14.80;;;13.70;;
16994;SDS011;8614;48.522;9.206;2024-03-02T09:26:40;10.83;;;9.83;;
16994;SDS011;8614;48.522;9.206;2024-03-02T09:29:10;10.33;;;9.53;;
16994;SDS011;8614;48.522;9.206;2024-03-02T09:31:39;8.70;;;7.80;;
16994;SDS011;8614;48.522;9.206;2024-03-02T09:34:06;9.37;;;8.37;;
16994;SDS011;8614;48.522;9.206;2024-03-02T09:36:33;8.60;;;7.80;;
16994;SDS011;8614;48.522;9.206;2024-03-02T09:39:00;10.00;;;9.00;;
16994;SDS011;8614;48.522;9.206;2024-03-02T09:41:29;9.30;;;8.50;;
16994;SDS011;8614;48.522;9.206;2024-03-02T09:43:55;8.33;;;7.63;;
16994;SDS011;8614;48.522;9.206;2024-03-02T09:46:24;9.00;;;8.10;;
16994;SDS011;8614;48.522;9.206;2024-03-02T09:48:51;8.37;;;6.60;;
16994;SDS011;8614;48.522;9.206;2024-03-02T09:51:18;7.57;;;6.43;;
16994;SDS011;8614;48.522;9.206;2024-03-02T09:53:45;7.10;;;6.40;;
16994;SDS011;8614;48.522;9.206;2024-03-02T09:56:14;6.40;;;5.80;;
16994;SDS011;8614;48.522;9.206;2024-03-02T09:58:43;6.73;;;6.13;;
16994;SDS011;8614;48.522;9.206;2024-03-02T10:01:10;6.97;;;6.13;;
16994;SDS011;8614;48.522;9.206;2024-03-02T10:03:38;6.33;;;5.70;;
16994;SDS011;8614;48.522;9.206;2024-03-02T10:06:21;7.37;;;6.10;;
16994;SDS011;8614;48.522;9.206;2024-03-02T10:08:49;6.83;;;6.03;;
16994;SDS011;8614;48.522;9.206;2024-03-02T10:11:25;7.80;;;7.00;;
16994;SDS011;8614;48.522;9.206;2024-03-02T10:14:07;8.73;;;6.97;;
16994;SDS011;8614;48.522;9.206;2024-03-02T10:16:35;7.77;;;7.00;;
16994;SDS011;8614;48.522;9.206;2024-03-02T10:19:20;7.87;;;6.53;;
16994;SDS011;8614;48.522;9.206;2024-03-02T10:21:47;10.27;;;9.43;;
16994;SDS011;8614;48.522;9.206;2024-03-02T10:24:15;13.77;;;12.77;;
16994;SDS011;8614;48.522;9.206;2024-03-02T10:26:42;12.73;;;11.80;;
16994;SDS011;8614;48.522;9.206;2024-03-02T10:29:09;14.60;;;13.50;;
16994;SDS011;8614;48.522;9.206;2024-03-02T10:31:36;13.53;;;12.53;;
16994;SDS011;8614;48.522;9.206;2024-03-02T10:34:04;13.20;;;12.30;;
16994;SDS011;8614;48.522;9.206;2024-03-02T10:36:33;12.73;;;11.73;;
16994;SDS011;8614;48.522;9.206;2024-03-02T10:39:01;8.40;;;6.53;;
16994;SDS011;8614;48.522;9.206;2024-03-02T10:41:29;10.43;;;7.60;;
16994;SDS011;8614;48.522;9.206;2024-03-02T10:43:59;7.83;;;7.03;;
16994;SDS011;8614;48.522;9.206;2024-03-02T10:46:28;11.03;;;8.27;;
16994;SDS011;8614;48.522;9.206;2024-03-02T10:48:55;8.40;;;7.50;;
16994;SDS011;8614;48.522;9.206;2024-03-02T10:51:24;7.73;;;6.70;;
16994;SDS011;8614;48.522;9.206;2024-03-02T10:53:52;17.57;;;16.17;;
16994;SDS011;8614;48.522;9.206;2024-03-02T10:56:21;14.30;;;13.30;;
16994;SDS011;8614;48.522;9.206;2024-03-02T10:58:55;13.90;;;12.80;;
16994;SDS011;8614;48.522;9.206;2024-03-02T11:01:29;13.67;;;12.47;;
16994;SDS011;8614;48.522;9.206;2024-03-02T11:03:58;13.07;;;12.17;;
16994;SDS011;8614;48.522;9.206;2024-03-02T11:06:28;12.63;;;11.73;;
16994;SDS011;8614;48.522;9.206;2024-03-02T11:08:59;12.80;;;11.90;;
16994;SDS011;8614;48.522;9.206;2024-03-02T11:11:32;12.57;;;11.67;;
16994;SDS011;8614;48.522;9.206;2024-03-02T11:14:01;11.90;;;11.10;;
16994;SDS011;8614;48.522;9.206;2024-03-02T11:16:34;12.30;;;11.40;;
16994;SDS011;8614;48.522;9.206;2024-03-02T11:19:03;11.27;;;10.57;;
16994;SDS011;8614;48.522;9.206;2024-03-02T11:21:34;10.90;;;10.20;;
16994;SDS011;8614;48.522;9.206;2024-03-02T11:27:00;11.73;;;10.90;;
16994;SDS011;8614;48.522;9.206;2024-03-02T11:29:44;12.23;;;11.40;;
16994;SDS011;8614;48.522;9.206;2024-03-02T11:32:15;11.80;;;11.00;;
16994;SDS011;8614;48.522;9.206;2024-03-02T11:34:45;12.20;;;11.30;;
16994;SDS011;8614;48.522;9.206;2024-03-02T11:37:13;11.83;;;10.93;;
16994;SDS011;8614;48.522;9.206;2024-03-02T11:39:42;11.80;;;11.00;;
16994;SDS011;8614;48.522;9.206;2024-03-02T11:42:11;7.03;;;6.32;;
16994;SDS011;8614;48.522;9.206;2024-03-02T11:44:39;6.10;;;5.60;;
16994;SDS011;8614;48.522;9.206;2024-03-02T11:47:07;11.80;;;11.00;;
16994;SDS011;8614;48.522;9.206;2024-03-02T11:49:37;12.47;;;11.57;;
16994;SDS011;8614;48.522;9.206;2024-03-02T11:52:05;11.80;;;11.00;;
16994;SDS011;8614;48.522;9.206;2024-03-02T11:54:33;10.93;;;10.23;;
16994;SDS011;8614;48.522;9.206;2024-03-02T11:57:02;11.13;;;10.43;;
16994;SDS011;8614;48.522;9.206;2024-03-02T11:59:29;10.67;;;9.97;;
16994;SDS011;8614;48.522;9.206;2024-03-02T12:01:56;10.70;;;10.10;;
16994;SDS011;8614;48.522;9.206;2024-03-02T12:04:24;10.43;;;9.83;;
16994;SDS011;8614;48.522;9.206;2024-03-02T12:06:54;10.80;;;10.10;;
16994;SDS011;8614;48.522;9.206;2024-03-02T12:09:21;10.10;;;9.50;;
16994;SDS011;8614;48.522;9.206;2024-03-02T12:12:00;9.50;;;8.93;;
16994;SDS011;8614;48.522;9.206;2024-03-02T12:14:30;9.93;;;9.33;;
16994;SDS011;8614;48.522;9.206;2024-03-02T12:16:57;9.83;;;9.23;;
16994;SDS011;8614;48.522;9.206;2024-03-02T12:19:25;9.60;;;9.00;;
16994;SDS011;8614;48.522;9.206;2024-03-02T12:21:52;10.30;;;9.70;;
16994;SDS011;8614;48.522;9.206;2024-03-02T12:24:20;10.53;;;9.83;;
16994;SDS011;8614;48.522;9.206;2024-03-02T12:26:48;9.87;;;9.17;;
16994;SDS011;8614;48.522;9.206;2024-03-02T12:29:17;10.00;;;9.40;;
16994;SDS011;8614;48.522;9.206;2024-03-02T12:31:47;9.80;;;9.17;;
16994;SDS011;8614;48.522;9.206;2024-03-02T12:34:15;9.73;;;9.13;;
16994;SDS011;8614;48.522;9.206;2024-03-02T12:36:43;10.03;;;9.33;;
16994;SDS011;8614;48.522;9.206;2024-03-02T12:39:15;9.87;;;9.20;;
16994;SDS011;8614;48.522;9.206;2024-03-02T12:41:43;9.20;;;8.60;;
16994;SDS011;8614;48.522;9.206;2024-03-02T12:44:09;10.40;;;9.80;;
16994;SDS011;8614;48.522;9.206;2024-03-02T12:46:38;10.10;;;9.50;;
16994;SDS011;8614;48.522;9.206;2024-03-02T12:49:06;9.67;;;9.07;;
16994;SDS011;8614;48.522;9.206;2024-03-02T12:51:36;8.70;;;8.20;;
16994;SDS011;8614;48.522;9.206;2024-03-02T12:54:03;9.17;;;8.67;;
16994;SDS011;8614;48.522;9.206;2024-03-02T12:56:30;8.83;;;8.33;;
16994;SDS011;8614;48.522;9.206;2024-03-02T12:58:58;8.70;;;8.20;;
16994;SDS011;8614;48.522;9.206;2024-03-02T13:01:25;8.80;;;8.30;;
16994;SDS011;8614;48.522;9.206;2024-03-02T13:03:53;8.60;;;8.10;;
16994;SDS011;8614;48.522;9.206;2024-03-02T13:06:21;8.67;;;8.17;;
16994;SDS011;8614;48.522;9.206;2024-03-02T13:08:48;8.53;;;8.03;;
16994;SDS011;8614;48.522;9.206;2024-03-02T13:11:15;8.43;;;7.93;;
16994;SDS011;8614;48.522;9.206;2024-03-02T13:13:42;9.27;;;8.77;;
16994;SDS011;8614;48.522;9.206;2024-03-02T13:16:09;8.63;;;8.13;;
16994;SDS011;8614;48.522;9.206;2024-03-02T13:18:38;9.00;;;8.50;;
16994;SDS011;8614;48.522;9.206;2024-03-02T13:21:07;9.23;;;8.63;;
16994;SDS011;8614;48.522;9.206;2024-03-02T13:23:34;9.10;;;8.50;;
16994;SDS011;8614;48.522;9.206;2024-03-02T13:26:01;9.03;;;8.53;;
16994;SDS011;8614;48.522;9.206;2024-03-02T13:28:28;9.73;;;9.13;;
16994;SDS011;8614;48.522;9.206;2024-03-02T13:30:55;9.00;;;8.40;;
16994;SDS011;8614;48.522;9.206;2024-03-02T13:33:22;8.50;;;7.90;;
16994;SDS011;8614;48.522;9.206;2024-03-02T13:35:52;8.73;;;8.23;;
16994;SDS011;8614;48.522;9.206;2024-03-02T13:38:20;8.47;;;7.97;;
16994;SDS011;8614;48.522;9.206;2024-03-02T13:40:48;8.40;;;7.90;;
16994;SDS011;8614;48.522;9.206;2024-03-02T13:43:17;8.10;;;7.70;;
16994;SDS011;8614;48.522;9.206;2024-03-02T13:45:44;8.23;;;7.83;;
16994;SDS011;8614;48.522;9.206;2024-03-02T13:48:12;8.77;;;8.27;;
16994;SDS011;8614;48.522;9.206;2024-03-02T13:50:39;8.23;;;7.83;;
16994;SDS011;8614;48.522;9.206;2024-03-02T13:53:06;8.50;;;8.00;;
16994;SDS011;8614;48.522;9.206;2024-03-02T13:55:35;8.57;;;8.07;;
16994;SDS011;8614;48.522;9.206;2024-03-02T13:58:03;8.50;;;8.00;;
16994;SDS011;8614;48.522;9.206;2024-03-02T14:00:30;8.80;;;8.30;;
16994;SDS011;8614;48.522;9.206;2024-03-02T14:02:58;9.10;;;8.50;;
16994;SDS011;8614;48.522;9.206;2024-03-02T14:05:25;8.90;;;8.30;;
16994;SDS011;8614;48.522;9.206;2024-03-02T14:07:52;9.67;;;9.07;;
16994;SDS011;8614;48.522;9.206;2024-03-02T14:10:19;9.10;;;8.60;;
16994;SDS011;8614;48.522;9.206;2024-03-02T14:12:49;9.20;;;8.50;;
16994;SDS011;8614;48.522;9.206;2024-03-02T14:15:16;8.27;;;7.87;;
16994;SDS011;8614;48.522;9.206;2024-03-02T14:17:42;8.50;;;8.00;;
16994;SDS011;8614;48.522;9.206;2024-03-02T14:20:10;8.90;;;8.40;;
16994;SDS011;8614;48.522;9.206;2024-03-02T14:22:38;8.40;;;7.80;;
16994;SDS011;8614;48.522;9.206;2024-03-02T14:25:05;8.50;;;8.00;;
16994;SDS011;8614;48.522;9.206;2024-03-02T14:27:33;8.30;;;7.80;;
16994;SDS011;8614;48.522;9.206;2024-03-02T14:30:02;8.50;;;8.00;;
16994;SDS011;8614;48.522;9.206;2024-03-02T14:32:30;8.73;;;8.23;;
16994;SDS011;8614;48.522;9.206;2024-03-02T14:34:57;8.70;;;8.20;;
16994;SDS011;8614;48.522;9.206;2024-03-02T14:37:24;8.63;;;8.13;;
16994;SDS011;8614;48.522;9.206;2024-03-02T14:39:50;8.67;;;8.17;;
16994;SDS011;8614;48.522;9.206;2024-03-02T14:42:17;9.10;;;8.60;;
16994;SDS011;8614;48.522;9.206;2024-03-02T14:44:44;9.00;;;8.40;;
16994;SDS011;8614;48.522;9.206;2024-03-02T14:47:12;9.10;;;8.50;;
16994;SDS011;8614;48.522;9.206;2024-03-02T14:49:39;9.03;;;8.43;;